Time;durP1;ratioP1;P1;durP2;ratioP2;P2;SDS_P1;SDS_P2;PMS_P1;PMS_P2;Temp;Humidity;BMP_temperature;BMP_pressure;BME280_temperature;BME280_humidity;BME280_pressure;Samples;Min_cycle;Max_cycle;Signal;HPM_P1;HPM_P2
2022/06/13 00:01:25;;;;;;;7.70;6.27;;;18.70;99.90;;;;;;5063828;28;20806;-82
2022/06/13 00:03:52;;;;;;;7.53;6.23;;;18.60;99.90;;;;;;5052745;28;20530;-82
2022/06/13 00:06:20;;;;;;;7.63;5.90;;;18.60;99.90;;;;;;5052716;28;20866;-81
2022/06/13 00:08:48;;;;;;;7.67;6.80;;;18.60;99.90;;;;;;5052765;28;20957;-82
2022/06/13 00:11:18;;;;;;;6.93;6.30;;;18.70;99.90;;;;;;5053272;28;20437;-83
2022/06/13 00:13:48;;;;;;;8.13;5.70;;;18.80;99.90;;;;;;5052875;28;20445;-84
2022/06/13 00:16:15;;;;;;;6.80;5.20;;;18.80;99.90;;;;;;5054001;28;20480;-83
2022/06/13 00:18:47;;;;;;;9.97;5.67;;;18.80;99.90;;;;;;5055150;28;20635;-84
2022/06/13 00:21:15;;;;;;;5.93;5.40;;;18.80;99.90;;;;;;5056509;28;20937;-83
2022/06/13 00:23:41;;;;;;;8.73;5.23;;;18.80;99.90;;;;;;5064544;28;20992;-82
2022/06/13 00:26:10;;;;;;;5.87;5.00;;;18.70;99.90;;;;;;5069930;28;20441;-81
2022/06/13 00:28:36;;;;;;;6.50;5.90;;;18.70;99.90;;;;;;5060115;28;20442;-82
2022/06/13 00:31:03;;;;;;;7.97;5.23;;;18.70;99.90;;;;;;5055127;28;20444;-82
2022/06/13 00:33:30;;;;;;;6.33;5.63;;;18.70;99.90;;;;;;5055441;28;20478;-82
2022/06/13 00:35:57;;;;;;;6.13;5.53;;;18.70;99.90;;;;;;5061015;28;20481;-81
2022/06/13 00:38:23;;;;;;;6.10;5.50;;;18.70;99.90;;;;;;5078579;28;20425;-81
2022/06/13 00:40:50;;;;;;;7.50;6.23;;;18.80;99.90;;;;;;5066870;28;20445;-82
2022/06/13 00:43:18;;;;;;;8.50;6.67;;;18.80;99.90;;;;;;5062327;28;20485;-82
2022/06/13 00:45:45;;;;;;;7.93;6.83;;;18.80;99.90;;;;;;5071686;28;20429;-81
2022/06/13 00:48:13;;;;;;;8.00;5.70;;;18.80;99.90;;;;;;5069059;28;20440;-82
2022/06/13 00:50:45;;;;;;;9.00;6.00;;;18.70;99.90;;;;;;5066813;28;20449;-82
2022/06/13 00:53:17;;;;;;;6.47;4.77;;;18.70;99.90;;;;;;5066882;28;20462;-81
2022/06/13 00:55:47;;;;;;;5.43;4.83;;;18.70;99.90;;;;;;5060066;28;20489;-81
2022/06/13 00:58:14;;;;;;;6.17;4.90;;;18.80;99.90;;;;;;5058811;28;20464;-81
2022/06/13 01:00:47;;;;;;;8.70;5.37;;;18.70;99.90;;;;;;5058934;28;20445;-83
2022/06/13 01:03:14;;;;;;;5.93;4.90;;;18.70;99.90;;;;;;5058723;28;20519;-81
2022/06/13 01:05:44;;;;;;;8.83;5.73;;;18.70;99.90;;;;;;5060848;28;20441;-82
2022/06/13 01:08:12;;;;;;;7.03;5.43;;;18.70;99.90;;;;;;5060082;28;20441;-83
2022/06/13 01:13:38;;;;;;;5.43;4.93;;;18.70;99.90;;;;;;5064066;28;20445;-83
2022/06/13 01:16:18;;;;;;;6.60;5.27;;;18.70;99.90;;;;;;5066634;28;20483;-82
2022/06/13 01:19:03;;;;;;;7.57;5.40;;;18.70;99.90;;;;;;5063519;28;20555;-82
2022/06/13 01:21:42;;;;;;;5.60;5.10;;;18.80;99.90;;;;;;5058729;28;21035;-83
2022/06/13 01:24:42;;;;;;;6.10;4.47;;;18.70;99.90;;;;;;5077269;28;20421;-82
2022/06/13 01:27:42;;;;;;;7.07;4.50;;;18.80;99.90;;;;;;5067272;28;20959;-83
2022/06/13 01:30:32;;;;;;;5.27;4.77;;;18.80;99.90;;;;;;5056949;28;20456;-82
2022/06/13 01:33:06;;;;;;;5.13;4.30;;;18.80;99.90;;;;;;5056235;28;20465;-82
2022/06/13 01:35:44;;;;;;;5.57;4.53;;;18.70;99.90;;;;;;5056805;28;20511;-82
2022/06/13 01:38:21;;;;;;;5.37;4.57;;;18.60;99.90;;;;;;5056116;28;20466;-82
2022/06/13 01:41:01;;;;;;;6.93;4.73;;;18.60;99.90;;;;;;5057224;28;20491;-82
2022/06/13 01:43:43;;;;;;;14.83;5.60;;;18.70;99.90;;;;;;5054770;28;20468;-82
2022/06/13 01:46:18;;;;;;;5.00;4.20;;;18.80;99.90;;;;;;5055175;28;20439;-82
2022/06/13 01:48:53;;;;;;;4.97;4.47;;;18.80;99.90;;;;;;5053995;28;20471;-83
2022/06/13 01:51:25;;;;;;;5.93;4.47;;;18.80;99.90;;;;;;5060234;28;20445;-82
2022/06/13 01:54:06;;;;;;;8.63;7.10;;;18.70;99.90;;;;;;5060444;28;20452;-83
2022/06/13 01:56:36;;;;;;;7.20;5.10;;;18.80;99.90;;;;;;5058227;28;20480;-83
2022/06/13 01:59:09;;;;;;;8.53;5.40;;;18.80;99.90;;;;;;5057533;28;20448;-81
2022/06/13 02:01:42;;;;;;;6.13;5.03;;;18.80;99.90;;;;;;5057459;28;20543;-83
2022/06/13 02:04:13;;;;;;;5.33;4.27;;;18.80;99.90;;;;;;5057053;28;20464;-82
2022/06/13 02:06:43;;;;;;;6.40;4.90;;;18.80;99.90;;;;;;5056837;28;20453;-82
2022/06/13 02:09:14;;;;;;;6.53;4.70;;;18.90;99.90;;;;;;5057480;28;20459;-82
2022/06/13 02:11:46;;;;;;;4.97;4.57;;;19.00;99.90;;;;;;5057059;28;20464;-83
2022/06/13 02:14:19;;;;;;;5.43;4.93;;;19.10;99.90;;;;;;5058197;28;20452;-82
2022/06/13 02:16:53;;;;;;;4.80;4.30;;;19.10;99.90;;;;;;5058285;28;20492;-83
2022/06/13 02:19:24;;;;;;;7.20;4.70;;;19.10;99.90;;;;;;5058671;28;20460;-86
2022/06/13 02:21:57;;;;;;;5.53;4.90;;;19.10;99.90;;;;;;5059292;28;20465;-79
2022/06/13 02:24:29;;;;;;;5.33;4.50;;;19.10;99.90;;;;;;5059473;28;20489;-79
2022/06/13 02:26:59;;;;;;;5.87;5.00;;;19.10;99.90;;;;;;5058772;28;20444;-79
2022/06/13 02:29:30;;;;;;;5.77;5.17;;;19.00;99.90;;;;;;5063472;28;20532;-77
2022/06/13 02:32:05;;;;;;;5.27;4.77;;;19.00;99.90;;;;;;5059026;28;20877;-79
2022/06/13 02:34:35;;;;;;;5.50;4.97;;;18.90;99.90;;;;;;5057561;28;20451;-77
2022/06/13 02:37:09;;;;;;;4.90;4.43;;;18.90;99.90;;;;;;5058247;28;20480;-77
2022/06/13 02:39:41;;;;;;;7.07;4.97;;;18.90;99.90;;;;;;5058101;28;20452;-77
2022/06/13 02:42:17;;;;;;;5.27;4.43;;;18.90;99.90;;;;;;5059336;28;20484;-77
2022/06/13 02:44:49;;;;;;;6.30;4.57;;;18.80;99.90;;;;;;5056627;28;20449;-77
2022/06/13 02:47:21;;;;;;;4.80;3.77;;;18.80;99.90;;;;;;5056409;28;20449;-77
2022/06/13 02:49:58;;;;;;;5.90;3.83;;;18.70;99.90;;;;;;5058203;28;20446;-78
2022/06/13 02:52:31;;;;;;;7.20;4.20;;;18.70;99.90;;;;;;5055696;28;20475;-78
2022/06/13 02:55:02;;;;;;;4.60;4.10;;;18.60;99.90;;;;;;5056061;28;20440;-78
2022/06/13 02:57:59;;;;;;;4.30;3.90;;;18.60;99.90;;;;;;5056485;28;20468;-78
2022/06/13 03:00:40;;;;;;;5.07;4.10;;;18.50;99.90;;;;;;5056187;28;20448;-78
2022/06/13 03:03:18;;;;;;;4.80;3.93;;;18.40;99.90;;;;;;5056728;28;20476;-77
2022/06/13 03:05:52;;;;;;;6.57;3.67;;;18.40;99.90;;;;;;5055324;28;20496;-77
2022/06/13 03:08:39;;;;;;;6.27;4.20;;;18.40;99.90;;;;;;5055335;28;20455;-78
2022/06/13 03:11:16;;;;;;;6.83;3.87;;;18.40;99.90;;;;;;5057469;28;20451;-78
2022/06/13 03:13:54;;;;;;;6.47;4.00;;;18.40;99.90;;;;;;5055957;28;20867;-78
2022/06/13 03:16:27;;;;;;;6.70;4.00;;;18.40;99.90;;;;;;5058957;28;20487;-78
2022/06/13 03:19:03;;;;;;;5.30;3.70;;;18.40;99.90;;;;;;5056832;28;20452;-78
2022/06/13 03:21:35;;;;;;;5.20;4.00;;;18.40;99.90;;;;;;5056227;28;20484;-77
2022/06/13 03:24:11;;;;;;;7.57;3.90;;;18.40;99.90;;;;;;5056183;28;20498;-78
2022/06/13 03:26:42;;;;;;;5.93;3.30;;;18.40;99.90;;;;;;5072300;28;20927;-77
2022/06/13 03:29:17;;;;;;;5.43;3.60;;;18.40;99.90;;;;;;5064316;28;20441;-79
2022/06/13 03:31:48;;;;;;;7.97;3.77;;;18.40;99.90;;;;;;5057545;28;20468;-79
2022/06/13 03:34:20;;;;;;;4.70;3.90;;;18.30;99.90;;;;;;5056263;28;20441;-79
2022/06/13 03:36:51;;;;;;;6.27;4.17;;;18.30;99.90;;;;;;5055733;28;20480;-78
2022/06/13 03:39:21;;;;;;;4.23;3.03;;;18.20;99.90;;;;;;5055828;28;20983;-78
2022/06/13 03:41:52;;;;;;;6.37;3.43;;;18.20;99.90;;;;;;5054303;28;20468;-77
2022/06/13 03:44:24;;;;;;;6.97;3.67;;;18.10;99.90;;;;;;5043389;28;20623;-78
2022/06/13 03:46:56;;;;;;;5.80;3.60;;;18.10;99.90;;;;;;5046036;28;20438;-77
2022/06/13 03:49:26;;;;;;;7.37;3.90;;;18.10;99.90;;;;;;5044395;28;20447;-79
2022/06/13 03:51:55;;;;;;;10.33;4.00;;;18.10;99.90;;;;;;5043283;28;20468;-79
2022/06/13 03:54:27;;;;;;;6.30;3.73;;;18.00;99.90;;;;;;5044491;28;20446;-78
2022/06/13 03:57:00;;;;;;;7.80;4.70;;;18.00;99.90;;;;;;5045932;28;20563;-79
2022/06/13 03:59:32;;;;;;;5.73;3.87;;;18.00;99.90;;;;;;5048682;28;20477;-78
2022/06/13 04:02:03;;;;;;;4.30;3.07;;;18.00;99.90;;;;;;5050978;28;20475;-79
2022/06/13 04:04:38;;;;;;;6.50;3.60;;;18.00;99.90;;;;;;5096834;22;20506;-82
2022/06/13 04:07:05;;;;;;;5.70;4.00;;;18.00;99.90;;;;;;5073512;28;20483;-82
2022/06/13 04:09:35;;;;;;;9.30;5.00;;;18.10;99.90;;;;;;5080373;28;20443;-80
2022/06/13 04:12:22;;;;;;;8.30;3.93;;;18.10;99.90;;;;;;5081417;28;20437;-80
2022/06/13 04:15:06;;;;;;;8.27;4.20;;;18.10;99.90;;;;;;5067548;28;20463;-81
2022/06/13 04:17:41;;;;;;;6.60;3.83;;;18.00;99.90;;;;;;5066730;28;20434;-80
2022/06/13 04:20:19;;;;;;;7.27;4.00;;;18.00;99.90;;;;;;5062976;28;20446;-79
2022/06/13 04:22:51;;;;;;;7.93;4.00;;;17.80;99.90;;;;;;5066529;28;20451;-78
2022/06/13 04:25:26;;;;;;;6.87;4.20;;;17.70;99.90;;;;;;5072380;28;20439;-80
2022/06/13 04:28:00;;;;;;;5.73;4.30;;;17.70;99.90;;;;;;5062146;28;20870;-78
2022/06/13 04:30:31;;;;;;;8.73;4.37;;;17.80;99.90;;;;;;5059446;28;20525;-79
2022/06/13 04:33:08;;;;;;;5.33;3.23;;;17.80;99.90;;;;;;5059819;28;20439;-80
2022/06/13 04:35:38;;;;;;;6.30;3.50;;;17.80;99.90;;;;;;5069006;28;20443;-80
2022/06/13 04:38:10;;;;;;;6.90;4.10;;;17.80;99.90;;;;;;5058293;28;20510;-79
2022/06/13 04:40:41;;;;;;;6.50;3.30;;;17.70;99.90;;;;;;5065283;28;20443;-78
2022/06/13 04:43:10;;;;;;;9.73;3.90;;;17.60;99.90;;;;;;5083319;28;20442;-79
2022/06/13 04:45:49;;;;;;;6.80;4.27;;;17.70;99.90;;;;;;5075947;28;20818;-79
2022/06/13 04:48:16;;;;;;;9.87;4.57;;;17.80;99.90;;;;;;5067309;28;20447;-80
2022/06/13 04:50:47;;;;;;;7.50;3.73;;;17.90;99.90;;;;;;5063874;28;20440;-77
2022/06/13 04:53:23;;;;;;;5.63;4.17;;;17.90;99.90;;;;;;5066955;28;20456;-81
2022/06/13 04:55:53;;;;;;;6.07;3.77;;;18.00;99.90;;;;;;5066490;28;21822;-81
2022/06/13 04:58:29;;;;;;;10.20;4.17;;;18.00;99.90;;;;;;5055781;28;20436;-79
2022/06/13 05:01:01;;;;;;;8.10;3.80;;;18.00;99.90;;;;;;5054992;28;20458;-79
2022/06/13 05:03:31;;;;;;;7.63;4.43;;;18.00;99.90;;;;;;5055463;28;20921;-80
2022/06/13 05:06:04;;;;;;;7.53;3.77;;;18.10;99.90;;;;;;5074469;28;21158;-81
2022/06/13 05:08:34;;;;;;;8.50;3.80;;;18.10;99.90;;;;;;5074392;28;20451;-81
2022/06/13 05:11:05;;;;;;;7.70;4.83;;;18.10;99.90;;;;;;5074685;28;20501;-81
2022/06/13 05:13:32;;;;;;;8.47;4.30;;;18.20;99.90;;;;;;5081381;28;20471;-85
2022/06/13 05:16:06;;;;;;;7.33;3.33;;;18.30;99.90;;;;;;5077902;28;20916;-83
2022/06/13 05:18:49;;;;;;;8.53;3.83;;;18.40;99.90;;;;;;5072973;28;20450;-82
2022/06/13 05:21:36;;;;;;;6.60;3.47;;;18.60;99.90;;;;;;5075077;28;20448;-82
2022/06/13 05:24:27;;;;;;;9.33;4.50;;;19.20;99.90;;;;;;5071590;28;20468;-81
2022/06/13 05:26:54;;;;;;;5.63;3.50;;;20.00;99.90;;;;;;5074705;28;20482;-81
2022/06/13 05:29:21;;;;;;;9.50;4.43;;;20.80;97.80;;;;;;5076842;28;20456;-82
2022/06/13 05:31:48;;;;;;;7.03;3.67;;;21.30;95.50;;;;;;5077174;28;20454;-82
2022/06/13 05:34:23;;;;;;;8.60;3.60;;;22.00;94.10;;;;;;5077954;28;20469;-82
2022/06/13 05:36:51;;;;;;;6.70;3.23;;;22.40;92.30;;;;;;5077233;28;20441;-82
2022/06/13 05:39:18;;;;;;;6.47;3.10;;;22.90;90.80;;;;;;5076846;28;20447;-83
2022/06/13 05:41:45;;;;;;;5.73;3.37;;;23.30;90.00;;;;;;5077763;28;20456;-83
2022/06/13 05:44:11;;;;;;;6.13;3.50;;;23.50;86.60;;;;;;5078782;28;20899;-84
2022/06/13 05:46:40;;;;;;;5.23;3.30;;;23.90;85.30;;;;;;5076159;28;20490;-82
2022/06/13 05:49:07;;;;;;;6.27;3.60;;;24.30;82.90;;;;;;5076034;28;20447;-81
2022/06/13 05:51:34;;;;;;;8.70;3.33;;;24.70;81.00;;;;;;5077286;28;20810;-83
2022/06/13 05:54:05;;;;;;;6.37;3.07;;;24.90;79.60;;;;;;5077918;28;20878;-83
2022/06/13 05:56:32;;;;;;;7.47;3.67;;;25.20;77.70;;;;;;5077509;28;20431;-83
2022/06/13 05:58:58;;;;;;;13.57;4.10;;;25.30;75.30;;;;;;5086513;28;21567;-83
2022/06/13 06:01:25;;;;;;;10.60;4.00;;;25.60;74.70;;;;;;5079571;28;20442;-83
2022/06/13 06:03:52;;;;;;;5.97;3.20;;;25.70;73.30;;;;;;5082172;28;20479;-81
2022/06/13 06:06:21;;;;;;;5.70;3.40;;;26.00;71.00;;;;;;5084861;28;20482;-83
2022/06/13 06:08:49;;;;;;;8.43;3.20;;;26.30;69.30;;;;;;5076588;28;20450;-83
2022/06/13 06:11:17;;;;;;;5.50;2.87;;;26.50;69.70;;;;;;5076339;28;21184;-83
2022/06/13 06:13:44;;;;;;;3.87;3.40;;;26.80;68.00;;;;;;5077915;28;20467;-83
2022/06/13 06:16:16;;;;;;;5.50;3.23;;;27.00;66.20;;;;;;5078847;28;20451;-83
2022/06/13 06:18:43;;;;;;;4.83;3.10;;;26.90;64.50;;;;;;5077498;28;20439;-83
2022/06/13 06:21:10;;;;;;;4.20;2.47;;;27.20;62.80;;;;;;5077141;28;20443;-83
2022/06/13 06:23:36;;;;;;;7.70;3.47;;;27.40;62.60;;;;;;5084468;28;20489;-81
2022/06/13 06:26:04;;;;;;;6.60;2.87;;;27.50;61.40;;;;;;5083848;28;20448;-83
2022/06/13 06:28:34;;;;;;;7.17;3.20;;;27.70;61.90;;;;;;5081483;28;20444;-81
2022/06/13 06:31:02;;;;;;;4.90;3.17;;;27.90;61.00;;;;;;5081405;28;20451;-82
2022/06/13 06:33:29;;;;;;;12.20;3.07;;;28.30;60.20;;;;;;5081994;28;21004;-83
2022/06/13 06:35:56;;;;;;;10.57;2.70;;;28.60;58.80;;;;;;5084033;28;20448;-80
2022/06/13 06:38:25;;;;;;;5.40;3.50;;;28.70;57.50;;;;;;5083245;28;20439;-83
2022/06/13 06:40:52;;;;;;;7.87;3.47;;;28.80;56.70;;;;;;5077218;28;20439;-83
2022/06/13 06:43:19;;;;;;;5.93;3.00;;;29.30;56.00;;;;;;5076397;28;20467;-83
2022/06/13 06:45:47;;;;;;;6.90;3.10;;;29.40;55.60;;;;;;5083964;28;20424;-79
2022/06/13 06:48:15;;;;;;;7.50;3.80;;;29.70;54.40;;;;;;5098305;28;20479;-80
2022/06/13 06:50:44;;;;;;;4.40;2.87;;;29.90;53.60;;;;;;5084065;28;20436;-80
2022/06/13 06:53:11;;;;;;;7.37;3.00;;;29.80;52.70;;;;;;5083060;28;20455;-83
2022/06/13 07:01:11;;;;;;;5.10;2.93;;;30.40;51.50;;;;;;5054842;28;20434;-84
2022/06/13 07:03:38;;;;;;;6.70;2.87;;;30.40;51.60;;;;;;5073963;28;20463;-84
2022/06/13 07:06:07;;;;;;;4.67;2.80;;;30.70;51.40;;;;;;5073149;28;20491;-83
2022/06/13 07:08:33;;;;;;;4.80;2.60;;;30.80;50.90;;;;;;5076799;28;20489;-83
2022/06/13 07:11:53;;;;;;;5.73;3.47;;;30.90;50.20;;;;;;5076756;28;20447;-84
2022/06/13 07:13:49;;;;;;;3.87;2.70;;;30.80;49.90;;;;;;5075583;28;20554;-84
2022/06/13 07:16:18;;;;;;;6.07;3.23;;;31.10;50.30;;;;;;5076673;28;20939;-83
2022/06/13 07:18:46;;;;;;;5.40;2.70;;;31.00;49.70;;;;;;5077247;28;20443;-83
2022/06/13 07:21:13;;;;;;;7.73;3.10;;;31.50;49.70;;;;;;5079634;28;20998;-83
2022/06/13 07:23:40;;;;;;;5.60;3.00;;;31.70;49.60;;;;;;5078189;28;20468;-83
2022/06/13 07:26:07;;;;;;;9.17;3.17;;;32.20;49.40;;;;;;5077161;28;20454;-84
2022/06/13 07:28:34;;;;;;;7.20;3.23;;;32.20;48.30;;;;;;5075009;28;20482;-83
2022/06/13 07:31:01;;;;;;;5.20;3.13;;;32.00;48.80;;;;;;5081990;28;20507;-82
2022/06/13 07:33:29;;;;;;;5.23;3.27;;;32.60;48.20;;;;;;5083645;28;20483;-81
2022/06/13 07:35:56;;;;;;;7.00;2.60;;;32.80;48.00;;;;;;5078320;28;20454;-84
2022/06/13 07:38:22;;;;;;;6.67;2.90;;;32.90;47.20;;;;;;5081786;28;20440;-82
2022/06/13 07:40:52;;;;;;;4.63;3.27;;;33.10;47.10;;;;;;5081172;28;20569;-83
2022/06/13 07:43:27;;;;;;;5.53;2.83;;;33.20;46.30;;;;;;5076173;28;20469;-83
2022/06/13 07:45:54;;;;;;;7.37;3.60;;;33.30;46.10;;;;;;5075402;28;20450;-83
2022/06/13 07:48:21;;;;;;;4.57;3.13;;;33.30;45.70;;;;;;5076795;28;20868;-82
2022/06/13 07:50:49;;;;;;;9.33;4.20;;;33.20;45.90;;;;;;5075139;28;20446;-83
2022/06/13 07:53:16;;;;;;;10.13;3.30;;;32.80;46.20;;;;;;5077120;28;20474;-83
2022/06/13 07:55:43;;;;;;;4.27;2.50;;;32.90;46.20;;;;;;5081299;28;20440;-81
2022/06/13 07:58:15;;;;;;;4.70;3.93;;;33.40;46.10;;;;;;5094609;28;20435;-80
2022/06/13 08:00:42;;;;;;;3.80;3.03;;;33.20;45.30;;;;;;5078260;28;20424;-83
2022/06/13 08:03:16;;;;;;;6.93;3.60;;;33.10;45.10;;;;;;5074932;28;20489;-82
2022/06/13 08:05:43;;;;;;;6.23;3.63;;;33.10;45.50;;;;;;5073722;28;20501;-82
2022/06/13 08:08:11;;;;;;;7.50;3.73;;;34.00;44.70;;;;;;5075763;28;20483;-81
2022/06/13 08:10:38;;;;;;;6.40;3.30;;;34.00;44.70;;;;;;5085038;28;20439;-81
2022/06/13 08:13:05;;;;;;;5.33;3.10;;;34.20;44.10;;;;;;5075042;28;20450;-83
2022/06/13 08:15:32;;;;;;;7.30;2.97;;;34.40;43.20;;;;;;5078448;28;20450;-80
2022/06/13 08:17:58;;;;;;;6.60;2.90;;;34.90;42.80;;;;;;5080496;28;20810;-83
2022/06/13 08:20:25;;;;;;;5.50;2.90;;;34.90;42.60;;;;;;5076518;28;20447;-82
2022/06/13 08:22:54;;;;;;;5.97;2.93;;;34.80;42.20;;;;;;5079513;28;20447;-79
2022/06/13 08:25:26;;;;;;;5.03;3.37;;;35.00;42.30;;;;;;5084215;28;20447;-80
2022/06/13 08:27:53;;;;;;;6.57;4.03;;;34.60;42.40;;;;;;5076445;28;21057;-81
2022/06/13 08:30:20;;;;;;;4.40;2.43;;;35.20;41.80;;;;;;5074319;28;20443;-82
2022/06/13 08:32:46;;;;;;;4.73;3.20;;;35.10;41.50;;;;;;5094037;28;20431;-79
2022/06/13 08:35:14;;;;;;;4.93;2.80;;;33.70;43.00;;;;;;5093042;28;20463;-80
2022/06/13 08:37:40;;;;;;;7.80;4.07;;;32.00;44.40;;;;;;5093031;28;20434;-80
2022/06/13 08:40:09;;;;;;;4.10;2.90;;;31.30;46.30;;;;;;5082562;28;20443;-82
2022/06/13 08:42:43;;;;;;;8.03;2.73;;;31.30;46.00;;;;;;5079592;28;20452;-82
2022/06/13 08:45:18;;;;;;;4.80;2.80;;;31.80;45.90;;;;;;5080531;28;20482;-81
2022/06/13 08:47:47;;;;;;;7.67;3.17;;;31.80;44.90;;;;;;5083823;28;20483;-81
2022/06/13 08:50:31;;;;;;;5.33;3.20;;;31.40;45.40;;;;;;5088661;28;20443;-82
2022/06/13 08:53:01;;;;;;;6.00;3.37;;;32.10;44.80;;;;;;5081426;28;20508;-82
2022/06/13 08:55:34;;;;;;;6.57;3.40;;;33.30;43.80;;;;;;5075444;28;20439;-83
2022/06/13 08:58:11;;;;;;;8.37;3.27;;;34.60;41.70;;;;;;5075749;28;20534;-82
2022/06/13 09:00:44;;;;;;;6.57;3.33;;;35.00;40.40;;;;;;5078992;28;20454;-82
2022/06/13 09:03:15;;;;;;;6.10;3.60;;;35.70;39.80;;;;;;5078636;28;20501;-82
2022/06/13 09:06:02;;;;;;;7.43;3.90;;;36.20;39.30;;;;;;5079493;28;20442;-83
2022/06/13 09:08:36;;;;;;;7.33;3.37;;;36.90;38.30;;;;;;5082488;28;20528;-81
2022/06/13 09:11:11;;;;;;;7.53;3.50;;;35.70;38.70;;;;;;5078757;28;20445;-82
2022/06/13 09:13:43;;;;;;;4.70;3.33;;;34.50;39.30;;;;;;5079096;28;20473;-82
2022/06/13 09:16:13;;;;;;;10.87;4.10;;;34.90;38.80;;;;;;5078153;28;20439;-80
2022/06/13 09:18:45;;;;;;;6.23;3.80;;;35.40;38.70;;;;;;5078409;28;20446;-82
2022/06/13 09:21:19;;;;;;;6.50;3.27;;;35.30;38.80;;;;;;5078924;28;20482;-82
2022/06/13 09:23:54;;;;;;;6.77;2.90;;;36.20;38.50;;;;;;5078144;28;20561;-82
2022/06/13 09:26:30;;;;;;;6.50;2.80;;;36.70;37.20;;;;;;5077905;28;20443;-81
2022/06/13 09:29:06;;;;;;;7.47;3.70;;;37.00;36.70;;;;;;5081272;28;20517;-81
2022/06/13 09:31:38;;;;;;;7.00;3.80;;;36.90;37.10;;;;;;5092640;28;20439;-81
2022/06/13 09:34:11;;;;;;;9.70;3.60;;;36.60;37.00;;;;;;5090781;28;20463;-81
2022/06/13 09:36:44;;;;;;;7.07;4.30;;;36.50;36.70;;;;;;5081936;28;20822;-82
2022/06/13 09:39:15;;;;;;;5.67;3.50;;;36.50;36.30;;;;;;5077736;28;20935;-81
2022/06/13 09:42:13;;;;;;;6.63;2.93;;;34.80;37.50;;;;;;5076939;28;20977;-80
2022/06/13 09:44:58;;;;;;;2.90;1.93;;;35.00;37.30;;;;;;5065126;28;20471;-80
2022/06/13 09:47:35;;;;;;;5.87;2.20;;;36.20;35.70;;;;;;5087235;28;20486;-77
2022/06/13 09:50:07;;;;;;;4.83;2.33;;;36.70;34.00;;;;;;5089708;28;20447;-79
2022/06/13 09:52:43;;;;;;;4.60;2.70;;;37.20;33.60;;;;;;5088182;28;20979;-79
2022/06/13 09:55:19;;;;;;;4.20;2.53;;;37.20;33.40;;;;;;5089767;28;20462;-77
2022/06/13 09:57:53;;;;;;;4.00;2.67;;;37.40;33.30;;;;;;5088679;28;20443;-79
2022/06/13 10:00:28;;;;;;;3.67;2.40;;;37.30;33.00;;;;;;5082015;28;20807;-78
2022/06/13 10:03:03;;;;;;;4.80;3.20;;;36.60;33.60;;;;;;5078103;28;20442;-81
2022/06/13 10:05:40;;;;;;;4.77;2.57;;;37.20;33.80;;;;;;5078026;28;20467;-81
2022/06/13 10:08:36;;;;;;;6.43;2.93;;;35.40;34.50;;;;;;5078595;28;20483;-80
2022/06/13 10:11:09;;;;;;;8.10;3.30;;;34.80;34.70;;;;;;5077276;28;20443;-81
2022/06/13 10:13:49;;;;;;;5.50;3.00;;;35.30;35.20;;;;;;5077333;28;20525;-81
2022/06/13 10:16:25;;;;;;;6.10;3.30;;;36.40;34.50;;;;;;5071036;28;20819;-80
2022/06/13 10:19:02;;;;;;;4.60;2.80;;;36.80;34.30;;;;;;5069421;28;20450;-81
2022/06/13 10:21:36;;;;;;;4.13;2.43;;;37.50;32.70;;;;;;5062461;28;20444;-81
2022/06/13 10:24:11;;;;;;;6.83;2.67;;;38.40;31.50;;;;;;5073337;28;20550;-80
2022/06/13 10:26:46;;;;;;;4.33;2.07;;;38.00;30.90;;;;;;5064530;28;20439;-81
2022/06/13 10:29:27;;;;;;;5.30;2.33;;;37.60;31.60;;;;;;5063703;28;20493;-79
2022/06/13 10:32:07;;;;;;;3.80;2.43;;;37.70;30.70;;;;;;5076579;28;20852;-81
2022/06/13 10:34:48;;;;;;;4.07;2.70;;;37.70;31.80;;;;;;5068961;28;20454;-80
2022/06/13 10:37:21;;;;;;;5.83;3.03;;;37.40;31.30;;;;;;5066441;28;20443;-79
2022/06/13 10:39:51;;;;;;;4.93;2.80;;;37.50;32.10;;;;;;5069439;28;20448;-80
2022/06/13 10:42:22;;;;;;;4.53;2.87;;;36.90;32.40;;;;;;5067128;28;20504;-81
2022/06/13 10:44:49;;;;;;;6.60;3.20;;;38.10;32.40;;;;;;5065585;28;20447;-81
2022/06/13 10:47:23;;;;;;;6.13;3.23;;;39.00;30.60;;;;;;5064023;28;20450;-81
2022/06/13 10:49:58;;;;;;;4.10;2.40;;;39.40;30.20;;;;;;5061952;28;20432;-80
2022/06/13 10:52:31;;;;;;;5.73;2.20;;;38.70;29.70;;;;;;5065295;28;20446;-80
2022/06/13 10:55:08;;;;;;;4.23;2.77;;;36.70;31.30;;;;;;5078086;28;20463;-78
2022/06/13 10:57:40;;;;;;;6.90;3.07;;;37.20;31.70;;;;;;5087867;28;20927;-80
2022/06/13 11:00:17;;;;;;;3.57;2.13;;;38.40;30.20;;;;;;5064296;28;20428;-79
2022/06/13 11:02:46;;;;;;;4.77;3.00;;;39.10;29.60;;;;;;5072370;28;20436;-81
2022/06/13 11:05:17;;;;;;;3.70;2.73;;;39.20;29.20;;;;;;5077763;28;20455;-83
2022/06/13 11:07:47;;;;;;;6.53;2.63;;;39.20;29.60;;;;;;5080759;28;20431;-80
2022/06/13 11:10:30;;;;;;;4.03;2.10;;;38.60;29.80;;;;;;5074056;22;20555;-84
2022/06/13 11:12:58;;;;;;;3.40;2.30;;;37.70;30.00;;;;;;5024950;28;20450;-83
2022/06/13 11:24:12;;;;;;;4.37;2.43;;;39.20;29.80;;;;;;5014840;28;20433;-84
2022/06/13 11:29:25;;;;;;;3.67;1.90;;;38.30;29.00;;;;;;5024854;28;20473;-83
2022/06/13 11:31:54;;;;;;;4.50;2.50;;;38.20;29.90;;;;;;5022223;28;20442;-85
2022/06/13 11:34:32;;;;;;;4.77;2.20;;;36.90;30.40;;;;;;5020961;28;20469;-85
2022/06/13 11:37:02;;;;;;;4.33;2.50;;;37.00;31.10;;;;;;5023333;28;20536;-84
2022/06/13 11:39:35;;;;;;;3.90;2.37;;;38.10;30.00;;;;;;5022329;28;20485;-84
2022/06/13 11:42:02;;;;;;;3.90;2.20;;;38.20;30.10;;;;;;5027474;28;20450;-83
2022/06/13 11:44:30;;;;;;;4.30;2.17;;;36.50;30.60;;;;;;5023499;28;20431;-84
2022/06/13 11:46:59;;;;;;;3.63;2.30;;;35.20;32.00;;;;;;5021923;28;20469;-85
2022/06/13 11:49:36;;;;;;;5.57;2.20;;;34.80;33.40;;;;;;5020736;28;20466;-84
2022/06/13 11:55:03;;;;;;;6.23;2.80;;;33.40;33.40;;;;;;5019760;28;20426;-84
2022/06/13 11:57:34;;;;;;;6.10;2.67;;;33.60;33.00;;;;;;5022558;28;20446;-83
2022/06/13 12:00:05;;;;;;;4.43;2.57;;;33.00;33.80;;;;;;5021155;28;20497;-83
2022/06/13 12:02:54;;;;;;;3.47;2.10;;;32.30;34.80;;;;;;5019490;28;20584;-83
2022/06/13 12:05:31;;;;;;;5.63;2.70;;;31.20;36.90;;;;;;5021164;28;20472;-82
2022/06/13 12:08:00;;;;;;;5.63;2.70;;;32.30;37.00;;;;;;5018274;28;20454;-84
2022/06/13 12:10:28;;;;;;;3.60;2.10;;;34.00;34.50;;;;;;5018861;28;20473;-81
2022/06/13 12:12:56;;;;;;;3.60;2.40;;;35.70;32.30;;;;;;5018128;28;20513;-83
2022/06/13 12:15:28;;;;;;;4.73;2.83;;;35.20;31.80;;;;;;5018173;28;20447;-83
2022/06/13 12:18:04;;;;;;;4.00;2.23;;;33.70;33.80;;;;;;5018784;28;20877;-83
2022/06/13 12:20:37;;;;;;;4.37;2.63;;;34.30;34.00;;;;;;5020759;28;20481;-83
2022/06/13 12:23:08;;;;;;;3.73;2.63;;;35.90;33.00;;;;;;5005055;28;20439;-83
2022/06/13 12:25:40;;;;;;;4.10;2.27;;;36.30;32.30;;;;;;5000728;28;20447;-84
2022/06/13 12:28:13;;;;;;;5.63;2.50;;;38.30;31.70;;;;;;5000763;28;20454;-83
2022/06/13 12:30:52;;;;;;;4.33;2.47;;;39.10;30.00;;;;;;5002315;28;20469;-83
2022/06/13 12:33:39;;;;;;;7.70;3.30;;;39.10;28.60;;;;;;5004574;28;20473;-84
2022/06/13 12:36:25;;;;;;;3.80;2.57;;;37.70;29.10;;;;;;5010875;28;20447;-83
2022/06/13 12:39:08;;;;;;;3.33;2.10;;;35.50;30.90;;;;;;5004230;28;20482;-84
2022/06/13 12:41:44;;;;;;;2.70;2.10;;;34.70;32.00;;;;;;5003421;28;20447;-83
2022/06/13 12:44:31;;;;;;;3.50;2.00;;;34.50;32.20;;;;;;5003536;28;20528;-84
2022/06/13 12:47:32;;;;;;;2.77;2.30;;;35.40;31.60;;;;;;5008326;28;20462;-83
2022/06/13 12:50:22;;;;;;;3.43;1.70;;;36.00;30.20;;;;;;4991210;28;20459;-83
2022/06/13 12:53:04;;;;;;;4.43;2.47;;;34.40;30.90;;;;;;5022186;28;20441;-83
2022/06/13 12:55:39;;;;;;;3.50;2.13;;;34.10;31.70;;;;;;5021942;28;20446;-84
2022/06/13 12:58:19;;;;;;;3.73;2.17;;;35.60;31.00;;;;;;5021926;28;20456;-84
2022/06/13 13:00:50;;;;;;;3.73;1.90;;;37.70;29.10;;;;;;5021452;28;20841;-83
2022/06/13 13:03:50;;;;;;;2.43;1.90;;;38.70;28.30;;;;;;5021897;28;20449;-84
2022/06/13 13:06:29;;;;;;;2.97;1.80;;;39.40;27.10;;;;;;4964288;28;20942;-83
2022/06/13 13:09:11;;;;;;;3.30;2.03;;;38.90;27.50;;;;;;5035604;28;20497;-83
2022/06/13 13:11:52;;;;;;;3.50;1.97;;;37.80;27.80;;;;;;5030846;28;20432;-83
2022/06/13 13:14:32;;;;;;;4.00;1.87;;;36.50;28.60;;;;;;5022679;28;20442;-84
2022/06/13 13:17:07;;;;;;;4.07;2.27;;;36.30;28.90;;;;;;5022320;28;20977;-83
2022/06/13 13:19:47;;;;;;;3.93;2.20;;;34.80;29.70;;;;;;5031259;28;20567;-82
2022/06/13 13:22:15;;;;;;;2.97;2.20;;;33.70;31.20;;;;;;5029707;28;20445;-82
2022/06/13 13:24:58;;;;;;;2.50;1.90;;;32.70;32.30;;;;;;5035448;28;20456;-83
2022/06/13 13:27:26;;;;;;;2.90;2.10;;;31.90;33.20;;;;;;5021672;28;20461;-84
2022/06/13 13:30:01;;;;;;;4.97;2.27;;;31.80;34.30;;;;;;5021634;28;20466;-85
2022/06/13 13:32:41;;;;;;;4.20;2.50;;;32.50;34.10;;;;;;5020976;28;20465;-84
2022/06/13 13:35:24;;;;;;;4.63;2.67;;;33.90;31.80;;;;;;5021270;28;20445;-84
2022/06/13 13:37:56;;;;;;;3.60;2.40;;;33.50;31.80;;;;;;5021302;28;20454;-83